sensor_id;sensor_type;location;lat;lon;timestamp;pressure;altitude;pressure_sealevel;temperature;humidity
73297;BME280;61524;50.938;11.396;2022-07-03T00:01:41;99415.69;;;13.36;79.41
73297;BME280;61524;50.938;11.396;2022-07-03T00:04:07;99417.78;;;13.34;79.34
73297;BME280;61524;50.938;11.396;2022-07-03T00:06:32;99429.41;;;13.40;78.48
73297;BME280;61524;50.938;11.396;2022-07-03T00:09:00;99459.75;;;13.41;78.82
73297;BME280;61524;50.938;11.396;2022-07-03T00:11:27;99433.19;;;13.44;77.95
73297;BME280;61524;50.938;11.396;2022-07-03T00:13:54;99426.19;;;13.43;79.09
73297;BME280;61524;50.938;11.396;2022-07-03T00:16:19;99415.94;;;13.35;78.65
73297;BME280;61524;50.938;11.396;2022-07-03T00:18:45;99428.75;;;13.28;79.53
73297;BME280;61524;50.938;11.396;2022-07-03T00:21:12;99431.56;;;13.43;77.97
73297;BME280;61524;50.938;11.396;2022-07-03T00:23:46;99434.47;;;13.36;78.93
73297;BME280;61524;50.938;11.396;2022-07-03T00:26:13;99428.94;;;13.48;78.09
73297;BME280;61524;50.938;11.396;2022-07-03T00:28:40;99422.41;;;13.39;78.91
73297;BME280;61524;50.938;11.396;2022-07-03T00:31:08;99433.50;;;13.48;77.40
73297;BME280;61524;50.938;11.396;2022-07-03T00:33:35;99433.56;;;13.58;77.13
73297;BME280;61524;50.938;11.396;2022-07-03T00:36:02;99439.06;;;13.73;76.25
73297;BME280;61524;50.938;11.396;2022-07-03T00:38:27;99435.31;;;13.74;75.84
73297;BME280;61524;50.938;11.396;2022-07-03T00:40:53;99453.03;;;13.75;76.71
73297;BME280;61524;50.938;11.396;2022-07-03T00:43:19;99377.03;;;13.75;77.05
73297;BME280;61524;50.938;11.396;2022-07-03T00:45:50;99426.56;;;13.89;75.91
73297;BME280;61524;50.938;11.396;2022-07-03T00:48:17;99423.69;;;14.01;74.68
73297;BME280;61524;50.938;11.396;2022-07-03T00:50:51;99435.50;;;14.00;74.76
73297;BME280;61524;50.938;11.396;2022-07-03T00:53:29;99449.13;;;13.93;76.08
73297;BME280;61524;50.938;11.396;2022-07-03T00:55:59;99443.44;;;13.84;75.31
73297;BME280;61524;50.938;11.396;2022-07-03T00:58:25;99434.41;;;13.63;77.40
73297;BME280;61524;50.938;11.396;2022-07-03T01:00:52;99447.66;;;13.43;77.97
73297;BME280;61524;50.938;11.396;2022-07-03T01:03:20;99444.28;;;13.26;78.71
73297;BME280;61524;50.938;11.396;2022-07-03T01:05:52;99436.38;;;13.14;79.37
73297;BME280;61524;50.938;11.396;2022-07-03T01:09:12;99428.59;;;12.91;80.99
73297;BME280;61524;50.938;11.396;2022-07-03T01:11:50;99446.72;;;12.78;80.75
73297;BME280;61524;50.938;11.396;2022-07-03T01:17:05;99414.47;;;12.73;81.40
73297;BME280;61524;50.938;11.396;2022-07-03T01:19:44;99403.97;;;12.94;79.55
73297;BME280;61524;50.938;11.396;2022-07-03T01:22:32;99426.28;;;13.21;78.35
73297;BME280;61524;50.938;11.396;2022-07-03T01:30:36;99421.56;;;14.08;74.25
73297;BME280;61524;50.938;11.396;2022-07-03T01:35:34;99422.38;;;14.08;74.31
73297;BME280;61524;50.938;11.396;2022-07-03T01:38:02;99426.44;;;14.11;73.76
73297;BME280;61524;50.938;11.396;2022-07-03T01:40:29;99411.13;;;14.16;74.07
73297;BME280;61524;50.938;11.396;2022-07-03T01:42:54;99425.34;;;14.12;74.24
73297;BME280;61524;50.938;11.396;2022-07-03T01:45:21;99421.31;;;14.14;73.25
73297;BME280;61524;50.938;11.396;2022-07-03T01:47:49;99409.28;;;14.22;73.53
73297;BME280;61524;50.938;11.396;2022-07-03T01:50:15;99420.56;;;14.24;73.24
73297;BME280;61524;50.938;11.396;2022-07-03T01:52:42;99424.16;;;14.40;72.58
73297;BME280;61524;50.938;11.396;2022-07-03T01:55:09;99427.91;;;14.39;72.57
73297;BME280;61524;50.938;11.396;2022-07-03T01:57:49;99422.03;;;14.47;72.19
73297;BME280;61524;50.938;11.396;2022-07-03T02:00:18;99434.72;;;14.52;71.95
73297;BME280;61524;50.938;11.396;2022-07-03T02:10:42;99398.16;;;14.03;74.53
73297;BME280;61524;50.938;11.396;2022-07-03T02:13:17;99395.88;;;13.80;76.51
73297;BME280;61524;50.938;11.396;2022-07-03T02:15:45;99384.75;;;13.66;77.02
73297;BME280;61524;50.938;11.396;2022-07-03T02:18:32;99411.28;;;13.57;77.82
73297;BME280;61524;50.938;11.396;2022-07-03T02:21:13;99375.97;;;13.38;77.07
73297;BME280;61524;50.938;11.396;2022-07-03T02:26:32;99373.84;;;13.41;76.48
73297;BME280;61524;50.938;11.396;2022-07-03T02:29:04;99380.59;;;13.48;76.54
73297;BME280;61524;50.938;11.396;2022-07-03T02:31:36;99380.88;;;13.47;77.72
73297;BME280;61524;50.938;11.396;2022-07-03T02:34:04;99373.28;;;13.38;77.27
73297;BME280;61524;50.938;11.396;2022-07-03T02:36:32;99379.22;;;13.41;77.63
73297;BME280;61524;50.938;11.396;2022-07-03T02:38:59;99402.47;;;13.30;77.75
73297;BME280;61524;50.938;11.396;2022-07-03T02:41:34;99375.75;;;13.18;78.65
73297;BME280;61524;50.938;11.396;2022-07-03T02:44:27;99366.25;;;13.05;78.79
73297;BME280;61524;50.938;11.396;2022-07-03T02:47:24;99369.66;;;12.96;79.84
73297;BME280;61524;50.938;11.396;2022-07-03T03:00:35;99382.41;;;12.34;82.29
73297;BME280;61524;50.938;11.396;2022-07-03T03:03:03;99360.47;;;12.38;82.40
73297;BME280;61524;50.938;11.396;2022-07-03T03:05:43;99368.09;;;12.24;82.23
73297;BME280;61524;50.938;11.396;2022-07-03T03:11:06;99357.44;;;12.07;83.04
73297;BME280;61524;50.938;11.396;2022-07-03T03:13:32;99369.19;;;12.06;82.51
73297;BME280;61524;50.938;11.396;2022-07-03T03:16:09;99352.81;;;12.02;83.36
73297;BME280;61524;50.938;11.396;2022-07-03T03:18:39;99355.16;;;11.99;83.56
73297;BME280;61524;50.938;11.396;2022-07-03T03:21:09;99361.84;;;12.18;82.61
73297;BME280;61524;50.938;11.396;2022-07-03T03:23:50;99365.53;;;12.34;82.77
73297;BME280;61524;50.938;11.396;2022-07-03T03:26:27;99376.53;;;12.38;81.62
73297;BME280;61524;50.938;11.396;2022-07-03T03:28:53;99366.66;;;12.38;81.96
73297;BME280;61524;50.938;11.396;2022-07-03T03:31:20;99361.59;;;12.42;82.19
73297;BME280;61524;50.938;11.396;2022-07-03T03:33:49;99361.66;;;12.47;81.11
73297;BME280;61524;50.938;11.396;2022-07-03T03:36:17;99369.00;;;12.34;82.12
73297;BME280;61524;50.938;11.396;2022-07-03T03:38:43;99361.91;;;12.23;82.28
73297;BME280;61524;50.938;11.396;2022-07-03T03:41:09;99361.97;;;12.28;82.15
73297;BME280;61524;50.938;11.396;2022-07-03T03:43:35;99355.56;;;12.29;82.70
73297;BME280;61524;50.938;11.396;2022-07-03T03:46:02;99380.66;;;12.23;82.46
73297;BME280;61524;50.938;11.396;2022-07-03T03:48:28;99351.00;;;12.08;82.87
73297;BME280;61524;50.938;11.396;2022-07-03T03:50:55;99369.16;;;12.23;82.91
73297;BME280;61524;50.938;11.396;2022-07-03T03:53:22;99353.69;;;12.30;82.79
73297;BME280;61524;50.938;11.396;2022-07-03T03:56:04;99358.09;;;12.19;83.14
73297;BME280;61524;50.938;11.396;2022-07-03T03:58:32;99364.91;;;12.27;83.36
73297;BME280;61524;50.938;11.396;2022-07-03T04:01:02;99371.06;;;12.27;83.47
73297;BME280;61524;50.938;11.396;2022-07-03T04:03:29;99367.38;;;12.55;82.65
73297;BME280;61524;50.938;11.396;2022-07-03T04:05:55;99383.94;;;13.28;79.67
73297;BME280;61524;50.938;11.396;2022-07-03T04:08:23;99386.22;;;14.36;75.30
73297;BME280;61524;50.938;11.396;2022-07-03T04:10:49;99398.81;;;14.99;72.73
73297;BME280;61524;50.938;11.396;2022-07-03T04:13:15;99411.81;;;15.68;70.63
73297;BME280;61524;50.938;11.396;2022-07-03T04:15:41;99416.06;;;16.10;69.07
73297;BME280;61524;50.938;11.396;2022-07-03T04:18:07;99419.69;;;16.54;66.63
73297;BME280;61524;50.938;11.396;2022-07-03T04:20:32;99428.94;;;16.98;67.00
73297;BME280;61524;50.938;11.396;2022-07-03T04:22:58;99419.59;;;17.24;65.70
73297;BME280;61524;50.938;11.396;2022-07-03T04:25:24;99427.25;;;17.46;64.85
73297;BME280;61524;50.938;11.396;2022-07-03T04:27:50;99430.66;;;17.91;63.30
73297;BME280;61524;50.938;11.396;2022-07-03T04:30:15;99442.19;;;18.31;62.28
73297;BME280;61524;50.938;11.396;2022-07-03T04:32:41;99419.19;;;18.52;61.10
73297;BME280;61524;50.938;11.396;2022-07-03T04:35:07;99425.78;;;18.70;60.79
73297;BME280;61524;50.938;11.396;2022-07-03T04:37:33;99437.09;;;18.72;60.97
73297;BME280;61524;50.938;11.396;2022-07-03T04:39:59;99451.34;;;19.21;60.00
73297;BME280;61524;50.938;11.396;2022-07-03T04:42:24;99453.81;;;19.55;58.91
73297;BME280;61524;50.938;11.396;2022-07-03T04:44:50;99435.75;;;19.83;57.74
73297;BME280;61524;50.938;11.396;2022-07-03T04:47:15;99450.16;;;20.11;57.43
73297;BME280;61524;50.938;11.396;2022-07-03T04:49:41;99419.03;;;20.08;58.46
73297;BME280;61524;50.938;11.396;2022-07-03T04:52:08;99466.00;;;20.50;57.91
73297;BME280;61524;50.938;11.396;2022-07-03T04:54:34;99467.19;;;20.71;57.03
73297;BME280;61524;50.938;11.396;2022-07-03T04:56:59;99466.59;;;20.88;55.36
73297;BME280;61524;50.938;11.396;2022-07-03T04:59:25;99452.22;;;21.24;56.29
73297;BME280;61524;50.938;11.396;2022-07-03T05:01:50;99451.47;;;21.46;55.00
73297;BME280;61524;50.938;11.396;2022-07-03T05:04:17;99468.94;;;21.98;53.81
73297;BME280;61524;50.938;11.396;2022-07-03T05:06:43;99447.44;;;22.50;51.73
73297;BME280;61524;50.938;11.396;2022-07-03T05:09:08;99467.78;;;22.53;53.23
73297;BME280;61524;50.938;11.396;2022-07-03T05:11:34;99474.97;;;22.97;50.82
73297;BME280;61524;50.938;11.396;2022-07-03T05:14:01;99456.72;;;23.33;49.35
73297;BME280;61524;50.938;11.396;2022-07-03T05:16:26;99465.72;;;23.42;49.40
73297;BME280;61524;50.938;11.396;2022-07-03T05:18:52;99433.47;;;23.26;49.27
73297;BME280;61524;50.938;11.396;2022-07-03T05:21:17;99436.81;;;23.75;48.36
73297;BME280;61524;50.938;11.396;2022-07-03T05:23:43;99443.31;;;24.09;48.15
73297;BME280;61524;50.938;11.396;2022-07-03T05:26:08;99433.75;;;24.32;47.49
73297;BME280;61524;50.938;11.396;2022-07-03T05:28:34;99427.25;;;24.54;48.43
73297;BME280;61524;50.938;11.396;2022-07-03T05:30:59;99443.47;;;25.10;45.42
73297;BME280;61524;50.938;11.396;2022-07-03T05:33:25;99452.47;;;25.85;44.35
73297;BME280;61524;50.938;11.396;2022-07-03T05:35:50;99443.72;;;26.04;44.46
73297;BME280;61524;50.938;11.396;2022-07-03T05:38:16;99350.06;;;26.11;44.69
73297;BME280;61524;50.938;11.396;2022-07-03T05:41:00;99364.41;;;25.83;45.34
73297;BME280;61524;50.938;11.396;2022-07-03T05:43:26;99401.41;;;26.75;43.33
73297;BME280;61524;50.938;11.396;2022-07-03T05:45:51;99393.44;;;26.70;44.08
73297;BME280;61524;50.938;11.396;2022-07-03T05:48:16;99381.09;;;26.64;43.19
73297;BME280;61524;50.938;11.396;2022-07-03T05:50:42;99397.13;;;27.02;42.96
73297;BME280;61524;50.938;11.396;2022-07-03T05:53:07;99409.19;;;27.54;41.07
73297;BME280;61524;50.938;11.396;2022-07-03T05:55:33;99421.22;;;28.09;39.28
73297;BME280;61524;50.938;11.396;2022-07-03T05:57:58;99400.75;;;27.46;40.28
73297;BME280;61524;50.938;11.396;2022-07-03T06:00:24;99411.56;;;27.83;39.62
73297;BME280;61524;50.938;11.396;2022-07-03T06:02:49;99414.50;;;28.06;39.59
73297;BME280;61524;50.938;11.396;2022-07-03T06:05:15;99407.22;;;28.14;39.16
73297;BME280;61524;50.938;11.396;2022-07-03T06:07:40;99405.47;;;28.21;39.38
73297;BME280;61524;50.938;11.396;2022-07-03T06:10:06;99420.34;;;28.52;37.62
73297;BME280;61524;50.938;11.396;2022-07-03T06:12:32;99411.78;;;28.38;36.71
73297;BME280;61524;50.938;11.396;2022-07-03T06:14:57;99429.50;;;28.91;36.50
73297;BME280;61524;50.938;11.396;2022-07-03T06:17:23;99417.53;;;28.48;36.29
73297;BME280;61524;50.938;11.396;2022-07-03T06:19:48;99408.13;;;28.49;35.85
73297;BME280;61524;50.938;11.396;2022-07-03T06:22:14;99404.63;;;28.68;36.07
73297;BME280;61524;50.938;11.396;2022-07-03T06:24:39;99413.41;;;28.74;37.09
73297;BME280;61524;50.938;11.396;2022-07-03T06:27:05;99412.88;;;28.68;35.53
73297;BME280;61524;50.938;11.396;2022-07-03T06:29:30;99401.47;;;28.50;37.12
73297;BME280;61524;50.938;11.396;2022-07-03T06:31:56;99411.69;;;28.85;36.15
73297;BME280;61524;50.938;11.396;2022-07-03T06:34:21;99418.09;;;29.47;34.86
73297;BME280;61524;50.938;11.396;2022-07-03T06:36:47;99399.50;;;29.02;35.14
73297;BME280;61524;50.938;11.396;2022-07-03T06:39:12;99398.03;;;28.73;35.58
73297;BME280;61524;50.938;11.396;2022-07-03T06:41:38;99390.94;;;28.72;34.92
73297;BME280;61524;50.938;11.396;2022-07-03T06:44:03;99393.69;;;28.72;35.95
73297;BME280;61524;50.938;11.396;2022-07-03T06:46:28;99387.25;;;29.19;34.49
73297;BME280;61524;50.938;11.396;2022-07-03T06:48:54;99396.31;;;29.39;34.40
73297;BME280;61524;50.938;11.396;2022-07-03T06:51:19;99382.88;;;29.37;33.73
73297;BME280;61524;50.938;11.396;2022-07-03T06:53:45;99392.34;;;30.01;32.93
73297;BME280;61524;50.938;11.396;2022-07-03T06:56:10;99387.47;;;30.14;33.51
73297;BME280;61524;50.938;11.396;2022-07-03T06:58:35;99382.00;;;29.95;34.00
73297;BME280;61524;50.938;11.396;2022-07-03T07:01:01;99372.88;;;29.68;33.22
73297;BME280;61524;50.938;11.396;2022-07-03T07:03:26;99365.47;;;29.72;33.48
73297;BME280;61524;50.938;11.396;2022-07-03T07:05:52;99360.34;;;29.51;32.27
73297;BME280;61524;50.938;11.396;2022-07-03T07:08:17;99351.03;;;29.56;33.54
73297;BME280;61524;50.938;11.396;2022-07-03T07:10:42;99209.25;;;29.49;32.51
73297;BME280;61524;50.938;11.396;2022-07-03T07:13:08;99307.56;;;29.68;33.45
73297;BME280;61524;50.938;11.396;2022-07-03T07:15:33;99339.97;;;30.01;33.16
73297;BME280;61524;50.938;11.396;2022-07-03T07:17:59;99329.09;;;29.63;33.48
73297;BME280;61524;50.938;11.396;2022-07-03T07:20:24;99334.78;;;29.96;32.07
73297;BME280;61524;50.938;11.396;2022-07-03T07:22:50;99324.56;;;29.74;33.06
73297;BME280;61524;50.938;11.396;2022-07-03T07:25:15;99331.06;;;30.35;31.36
73297;BME280;61524;50.938;11.396;2022-07-03T07:27:40;99319.19;;;30.30;31.26
73297;BME280;61524;50.938;11.396;2022-07-03T07:30:06;99312.41;;;30.01;31.95
73297;BME280;61524;50.938;11.396;2022-07-03T07:32:32;99335.69;;;31.51;29.58
73297;BME280;61524;50.938;11.396;2022-07-03T07:34:57;99334.44;;;31.11;28.96
73297;BME280;61524;50.938;11.396;2022-07-03T07:37:22;99324.09;;;31.04;29.17
73297;BME280;61524;50.938;11.396;2022-07-03T07:39:48;99303.94;;;30.40;30.40
73297;BME280;61524;50.938;11.396;2022-07-03T07:42:13;99284.63;;;29.41;29.74
73297;BME280;61524;50.938;11.396;2022-07-03T07:44:38;99308.03;;;30.23;30.94
73297;BME280;61524;50.938;11.396;2022-07-03T07:47:04;99297.88;;;30.27;30.97
73297;BME280;61524;50.938;11.396;2022-07-03T07:49:29;99290.81;;;29.80;30.45
73297;BME280;61524;50.938;11.396;2022-07-03T07:51:55;99301.19;;;30.40;31.70
73297;BME280;61524;50.938;11.396;2022-07-03T07:54:20;99304.50;;;30.79;28.69
73297;BME280;61524;50.938;11.396;2022-07-03T07:56:45;99309.97;;;31.09;29.74
73297;BME280;61524;50.938;11.396;2022-07-03T07:59:11;99296.22;;;31.13;29.21
73297;BME280;61524;50.938;11.396;2022-07-03T08:01:37;99292.50;;;31.35;28.62
73297;BME280;61524;50.938;11.396;2022-07-03T08:04:20;99284.56;;;31.30;26.87
73297;BME280;61524;50.938;11.396;2022-07-03T08:07:04;99289.28;;;30.93;28.71
73297;BME280;61524;50.938;11.396;2022-07-03T08:09:30;99273.72;;;31.11;28.46
73297;BME280;61524;50.938;11.396;2022-07-03T08:11:55;99283.28;;;30.87;28.66
73297;BME280;61524;50.938;11.396;2022-07-03T08:14:21;99203.25;;;29.93;29.86
73297;BME280;61524;50.938;11.396;2022-07-03T08:16:46;99241.84;;;29.01;29.38
73297;BME280;61524;50.938;11.396;2022-07-03T08:19:12;99234.13;;;28.68;29.07
73297;BME280;61524;50.938;11.396;2022-07-03T08:21:37;99226.16;;;28.44;30.66
73297;BME280;61524;50.938;11.396;2022-07-03T08:24:02;99225.56;;;27.99;31.40
73297;BME280;61524;50.938;11.396;2022-07-03T08:26:28;99228.09;;;28.63;31.38
73297;BME280;61524;50.938;11.396;2022-07-03T08:28:53;99226.94;;;28.44;30.94
73297;BME280;61524;50.938;11.396;2022-07-03T08:31:19;99220.88;;;28.74;31.96
73297;BME280;61524;50.938;11.396;2022-07-03T08:33:44;99224.34;;;28.71;33.31
73297;BME280;61524;50.938;11.396;2022-07-03T08:36:10;99232.59;;;28.90;32.90
73297;BME280;61524;50.938;11.396;2022-07-03T08:38:35;99226.16;;;29.02;30.55
73297;BME280;61524;50.938;11.396;2022-07-03T08:41:02;99202.94;;;28.61;31.28
73297;BME280;61524;50.938;11.396;2022-07-03T08:43:28;99231.50;;;28.95;31.62
73297;BME280;61524;50.938;11.396;2022-07-03T08:45:54;99222.03;;;29.15;32.34
73297;BME280;61524;50.938;11.396;2022-07-03T08:48:24;99221.91;;;28.89;31.48
73297;BME280;61524;50.938;11.396;2022-07-03T08:50:50;99218.69;;;29.02;31.92
73297;BME280;61524;50.938;11.396;2022-07-03T08:53:17;99210.06;;;28.85;31.89
73297;BME280;61524;50.938;11.396;2022-07-03T08:55:43;99197.75;;;28.01;32.84
73297;BME280;61524;50.938;11.396;2022-07-03T08:58:10;99181.59;;;27.48;33.77
73297;BME280;61524;50.938;11.396;2022-07-03T09:00:38;99188.09;;;27.91;33.92
73297;BME280;61524;50.938;11.396;2022-07-03T09:03:09;99203.94;;;28.72;32.50
73297;BME280;61524;50.938;11.396;2022-07-03T09:05:35;99198.13;;;28.96;31.79
73297;BME280;61524;50.938;11.396;2022-07-03T09:08:02;99199.13;;;29.08;30.67
73297;BME280;61524;50.938;11.396;2022-07-03T09:10:28;99179.44;;;28.09;31.77
73297;BME280;61524;50.938;11.396;2022-07-03T09:12:54;99159.66;;;27.33;33.55
73297;BME280;61524;50.938;11.396;2022-07-03T09:15:20;99172.16;;;27.30;33.84
73297;BME280;61524;50.938;11.396;2022-07-03T09:20:28;99193.78;;;28.76;32.39
73297;BME280;61524;50.938;11.396;2022-07-03T09:23:08;99181.97;;;28.53;31.15
73297;BME280;61524;50.938;11.396;2022-07-03T09:25:34;99167.94;;;28.58;30.45
73297;BME280;61524;50.938;11.396;2022-07-03T09:28:00;99182.69;;;28.92;30.70
73297;BME280;61524;50.938;11.396;2022-07-03T09:30:25;99183.63;;;28.99;31.04
73297;BME280;61524;50.938;11.396;2022-07-03T09:32:52;99194.88;;;29.37;31.19
73297;BME280;61524;50.938;11.396;2022-07-03T09:35:26;99199.91;;;29.54;30.02
73297;BME280;61524;50.938;11.396;2022-07-03T09:37:59;99184.09;;;29.51;30.06
73297;BME280;61524;50.938;11.396;2022-07-03T09:40:26;99159.88;;;28.91;30.52
73297;BME280;61524;50.938;11.396;2022-07-03T09:43:02;99184.38;;;29.19;30.67
73297;BME280;61524;50.938;11.396;2022-07-03T09:45:49;99235.78;;;29.84;30.72
73297;BME280;61524;50.938;11.396;2022-07-03T09:48:27;99210.03;;;29.73;30.18
73297;BME280;61524;50.938;11.396;2022-07-03T09:51:22;99219.16;;;29.31;30.30
73297;BME280;61524;50.938;11.396;2022-07-03T09:54:04;99221.28;;;29.61;30.79
73297;BME280;61524;50.938;11.396;2022-07-03T09:56:37;99228.31;;;30.11;29.34
73297;BME280;61524;50.938;11.396;2022-07-03T09:59:09;99210.97;;;29.35;29.92
73297;BME280;61524;50.938;11.396;2022-07-03T10:01:45;99206.50;;;29.49;30.64
73297;BME280;61524;50.938;11.396;2022-07-03T10:04:16;99221.78;;;29.47;28.79
73297;BME280;61524;50.938;11.396;2022-07-03T10:06:55;99197.44;;;28.61;30.77
73297;BME280;61524;50.938;11.396;2022-07-03T10:09:29;99200.00;;;28.73;29.68
73297;BME280;61524;50.938;11.396;2022-07-03T10:11:56;99204.31;;;29.36;30.13
73297;BME280;61524;50.938;11.396;2022-07-03T10:14:24;99199.28;;;29.64;28.83
73297;BME280;61524;50.938;11.396;2022-07-03T10:16:50;99197.16;;;29.80;28.91
73297;BME280;61524;50.938;11.396;2022-07-03T10:19:21;99166.50;;;29.82;28.71
73297;BME280;61524;50.938;11.396;2022-07-03T10:22:18;99199.72;;;29.20;29.86
73297;BME280;61524;50.938;11.396;2022-07-03T10:24:47;99204.13;;;29.25;29.57
73297;BME280;61524;50.938;11.396;2022-07-03T10:27:13;99189.59;;;29.01;29.63
73297;BME280;61524;50.938;11.396;2022-07-03T10:29:39;99184.25;;;28.70;29.88
73297;BME280;61524;50.938;11.396;2022-07-03T10:32:06;99174.47;;;28.14;29.82
73297;BME280;61524;50.938;11.396;2022-07-03T10:34:33;99185.53;;;28.95;28.87
73297;BME280;61524;50.938;11.396;2022-07-03T10:37:01;99193.13;;;29.02;29.13
73297;BME280;61524;50.938;11.396;2022-07-03T10:41:59;99184.38;;;29.19;28.39
73297;BME280;61524;50.938;11.396;2022-07-03T10:45:08;99201.88;;;29.53;28.87
73297;BME280;61524;50.938;11.396;2022-07-03T10:47:48;99187.38;;;29.57;29.01
73297;BME280;61524;50.938;11.396;2022-07-03T10:50:16;99190.63;;;30.19;28.91
73297;BME280;61524;50.938;11.396;2022-07-03T10:52:43;99185.63;;;30.01;28.94
73297;BME280;61524;50.938;11.396;2022-07-03T10:55:08;99178.91;;;30.25;28.19
73297;BME280;61524;50.938;11.396;2022-07-03T10:57:35;99177.53;;;30.42;27.89
73297;BME280;61524;50.938;11.396;2022-07-03T11:00:04;99172.09;;;30.16;27.70
73297;BME280;61524;50.938;11.396;2022-07-03T11:07:33;99169.44;;;29.20;28.76
73297;BME280;61524;50.938;11.396;2022-07-03T11:25:39;99109.19;;;29.38;29.72
73297;BME280;61524;50.938;11.396;2022-07-03T11:28:05;99135.00;;;29.30;29.22
73297;BME280;61524;50.938;11.396;2022-07-03T11:30:30;99147.91;;;29.26;29.65
73297;BME280;61524;50.938;11.396;2022-07-03T11:32:58;99124.19;;;28.95;28.31
73297;BME280;61524;50.938;11.396;2022-07-03T11:35:47;99125.97;;;28.41;29.00
73297;BME280;61524;50.938;11.396;2022-07-03T11:38:15;99114.44;;;28.55;29.57
73297;BME280;61524;50.938;11.396;2022-07-03T11:40:41;99127.00;;;28.75;29.65
73297;BME280;61524;50.938;11.396;2022-07-03T11:43:11;99131.06;;;29.31;28.86
73297;BME280;61524;50.938;11.396;2022-07-03T11:45:39;99136.91;;;29.26;28.42
73297;BME280;61524;50.938;11.396;2022-07-03T11:48:11;99131.31;;;29.45;29.13
73297;BME280;61524;50.938;11.396;2022-07-03T11:50:38;99121.28;;;29.07;28.76
73297;BME280;61524;50.938;11.396;2022-07-03T11:58:18;99075.66;;;29.06;28.84
73297;BME280;61524;50.938;11.396;2022-07-03T12:00:44;99110.53;;;29.51;27.93
73297;BME280;61524;50.938;11.396;2022-07-03T12:03:14;99111.75;;;29.80;26.73
73297;BME280;61524;50.938;11.396;2022-07-03T12:05:55;99121.94;;;30.06;26.47
73297;BME280;61524;50.938;11.396;2022-07-03T12:10:49;99115.16;;;30.30;27.10
73297;BME280;61524;50.938;11.396;2022-07-03T12:13:21;99101.09;;;30.09;25.79
73297;BME280;61524;50.938;11.396;2022-07-03T12:15:47;99107.78;;;29.78;26.54
73297;BME280;61524;50.938;11.396;2022-07-03T12:18:13;99110.78;;;30.26;28.00
73297;BME280;61524;50.938;11.396;2022-07-03T12:20:39;99110.09;;;30.36;26.34
73297;BME280;61524;50.938;11.396;2022-07-03T12:23:05;99103.63;;;29.91;26.59
73297;BME280;61524;50.938;11.396;2022-07-03T12:25:30;99093.50;;;29.69;28.25
73297;BME280;61524;50.938;11.396;2022-07-03T12:27:56;99091.25;;;28.98;28.05
73297;BME280;61524;50.938;11.396;2022-07-03T12:30:22;99086.56;;;29.52;26.73
73297;BME280;61524;50.938;11.396;2022-07-03T12:32:53;99021.22;;;29.79;27.71
73297;BME280;61524;50.938;11.396;2022-07-03T12:35:25;99034.25;;;30.16;27.28
73297;BME280;61524;50.938;11.396;2022-07-03T12:37:51;99066.56;;;30.15;26.83
73297;BME280;61524;50.938;11.396;2022-07-03T12:40:17;99064.63;;;30.19;26.88
73297;BME280;61524;50.938;11.396;2022-07-03T12:42:52;99060.69;;;30.57;27.05
73297;BME280;61524;50.938;11.396;2022-07-03T12:45:24;99066.28;;;29.64;26.53
73297;BME280;61524;50.938;11.396;2022-07-03T12:47:59;99078.41;;;30.19;27.75
73297;BME280;61524;50.938;11.396;2022-07-03T12:50:25;99073.53;;;30.43;26.76
73297;BME280;61524;50.938;11.396;2022-07-03T12:52:54;99070.16;;;30.60;26.28
73297;BME280;61524;50.938;11.396;2022-07-03T12:57:49;99064.59;;;30.56;26.59
73297;BME280;61524;50.938;11.396;2022-07-03T13:00:42;99060.41;;;30.70;26.21
73297;BME280;61524;50.938;11.396;2022-07-03T13:03:09;99053.38;;;30.76;26.00
73297;BME280;61524;50.938;11.396;2022-07-03T13:05:50;99048.63;;;30.73;26.46
73297;BME280;61524;50.938;11.396;2022-07-03T13:08:16;99050.53;;;30.69;26.54
73297;BME280;61524;50.938;11.396;2022-07-03T13:10:42;99050.75;;;30.49;26.78
73297;BME280;61524;50.938;11.396;2022-07-03T13:13:07;99042.53;;;30.16;26.79
73297;BME280;61524;50.938;11.396;2022-07-03T13:15:33;99043.78;;;29.88;26.06
73297;BME280;61524;50.938;11.396;2022-07-03T13:17:59;99037.16;;;29.36;25.92
73297;BME280;61524;50.938;11.396;2022-07-03T13:20:33;99035.16;;;29.93;27.41
73297;BME280;61524;50.938;11.396;2022-07-03T13:23:06;99004.09;;;30.33;27.13
73297;BME280;61524;50.938;11.396;2022-07-03T13:25:33;99042.47;;;30.12;27.55
73297;BME280;61524;50.938;11.396;2022-07-03T13:28:07;99036.13;;;30.45;26.18
73297;BME280;61524;50.938;11.396;2022-07-03T13:30:33;99041.59;;;30.82;26.05
73297;BME280;61524;50.938;11.396;2022-07-03T13:33:00;99042.34;;;30.76;25.50
73297;BME280;61524;50.938;11.396;2022-07-03T13:35:26;99032.03;;;30.69;26.09
73297;BME280;61524;50.938;11.396;2022-07-03T13:37:51;99034.31;;;30.23;26.58
73297;BME280;61524;50.938;11.396;2022-07-03T13:40:17;99020.81;;;29.77;27.22
73297;BME280;61524;50.938;11.396;2022-07-03T13:42:42;99025.56;;;29.80;27.19
73297;BME280;61524;50.938;11.396;2022-07-03T13:45:08;99019.38;;;29.90;27.40
73297;BME280;61524;50.938;11.396;2022-07-03T13:47:34;99032.09;;;29.98;26.90
73297;BME280;61524;50.938;11.396;2022-07-03T13:49:59;99034.25;;;29.82;27.58
73297;BME280;61524;50.938;11.396;2022-07-03T13:52:25;99031.06;;;29.80;27.09
73297;BME280;61524;50.938;11.396;2022-07-03T13:54:50;98937.91;;;29.89;26.51
73297;BME280;61524;50.938;11.396;2022-07-03T13:57:15;99015.44;;;29.88;27.23
73297;BME280;61524;50.938;11.396;2022-07-03T13:59:41;99008.09;;;29.65;27.00
73297;BME280;61524;50.938;11.396;2022-07-03T14:02:07;99025.16;;;29.78;27.34
73297;BME280;61524;50.938;11.396;2022-07-03T14:04:32;99018.19;;;29.91;26.37
73297;BME280;61524;50.938;11.396;2022-07-03T14:06:58;99007.16;;;29.88;27.85
73297;BME280;61524;50.938;11.396;2022-07-03T14:09:23;99012.00;;;29.38;25.74